Terminal Aerodrome Forecast
Issued by NWS Louisville, KY

Home | Current Version | Previous Version | Text Only | Print | Product List | Glossary On
Versions: 1 2 3 4 5 6 7 8 9 10 11 12 13 14 15 16 17 18 19 20
000
FTUS43 KLMK 212320
TAFSDF
TAF
KSDF 212320Z 2200/2306 24006KT 6SM HZ FEW050 SCT250
     FM220300 19004KT 6SM HZ SCT250
      TEMPO 2210/2214 5SM HZ
     FM221500 23009KT 6SM HZ FEW045 SCT250=

USA.gov is the U.S. government's official web portal to all federal, state and local government web resources and services.